sensor_id;sensor_type;location;lat;lon;timestamp;temperature;humidity
19342;DHT22;9807;48.258;12.690;2022-08-05T00:01:16;26.20;99.90
19342;DHT22;9807;48.258;12.690;2022-08-05T00:03:46;26.10;99.90
19342;DHT22;9807;48.258;12.690;2022-08-05T00:06:12;26.10;99.90
19342;DHT22;9807;48.258;12.690;2022-08-05T00:08:39;26.10;99.90
19342;DHT22;9807;48.258;12.690;2022-08-05T00:11:12;26.00;99.90
19342;DHT22;9807;48.258;12.690;2022-08-05T00:13:40;26.00;99.90
19342;DHT22;9807;48.258;12.690;2022-08-05T00:16:14;26.00;99.90
19342;DHT22;9807;48.258;12.690;2022-08-05T00:18:46;26.00;99.90
19342;DHT22;9807;48.258;12.690;2022-08-05T00:21:13;26.00;99.90
19342;DHT22;9807;48.258;12.690;2022-08-05T00:23:40;25.90;99.90
19342;DHT22;9807;48.258;12.690;2022-08-05T00:26:12;25.90;99.90
19342;DHT22;9807;48.258;12.690;2022-08-05T00:28:38;25.90;99.90
19342;DHT22;9807;48.258;12.690;2022-08-05T00:31:17;25.80;99.90
19342;DHT22;9807;48.258;12.690;2022-08-05T00:33:42;25.80;99.90
19342;DHT22;9807;48.258;12.690;2022-08-05T00:36:12;25.80;99.90
19342;DHT22;9807;48.258;12.690;2022-08-05T00:38:39;25.70;99.90
19342;DHT22;9807;48.258;12.690;2022-08-05T00:41:05;25.70;99.90
19342;DHT22;9807;48.258;12.690;2022-08-05T00:43:38;25.70;99.90
19342;DHT22;9807;48.258;12.690;2022-08-05T00:46:13;25.70;99.90
19342;DHT22;9807;48.258;12.690;2022-08-05T00:48:38;25.70;99.90
19342;DHT22;9807;48.258;12.690;2022-08-05T00:51:10;25.60;99.90
19342;DHT22;9807;48.258;12.690;2022-08-05T00:53:36;25.60;99.90
19342;DHT22;9807;48.258;12.690;2022-08-05T00:56:02;25.50;99.90
19342;DHT22;9807;48.258;12.690;2022-08-05T00:58:27;25.50;99.90
19342;DHT22;9807;48.258;12.690;2022-08-05T01:00:53;25.50;99.90
19342;DHT22;9807;48.258;12.690;2022-08-05T01:03:19;25.50;99.90
19342;DHT22;9807;48.258;12.690;2022-08-05T01:05:45;25.40;99.90
19342;DHT22;9807;48.258;12.690;2022-08-05T01:08:10;25.40;99.90
19342;DHT22;9807;48.258;12.690;2022-08-05T01:11:02;25.40;99.90
19342;DHT22;9807;48.258;12.690;2022-08-05T01:16:30;25.40;99.90
19342;DHT22;9807;48.258;12.690;2022-08-05T01:19:13;25.30;99.90
19342;DHT22;9807;48.258;12.690;2022-08-05T01:21:52;25.30;99.90
19342;DHT22;9807;48.258;12.690;2022-08-05T01:26:59;25.20;99.90
19342;DHT22;9807;48.258;12.690;2022-08-05T01:29:39;25.20;99.90
19342;DHT22;9807;48.258;12.690;2022-08-05T01:32:10;25.20;99.90
19342;DHT22;9807;48.258;12.690;2022-08-05T01:35:00;25.20;99.90
19342;DHT22;9807;48.258;12.690;2022-08-05T01:40:12;25.10;99.90
19342;DHT22;9807;48.258;12.690;2022-08-05T01:42:41;25.10;99.90
19342;DHT22;9807;48.258;12.690;2022-08-05T01:45:07;25.00;99.90
19342;DHT22;9807;48.258;12.690;2022-08-05T01:47:35;25.10;99.90
19342;DHT22;9807;48.258;12.690;2022-08-05T01:50:07;25.00;99.90
19342;DHT22;9807;48.258;12.690;2022-08-05T01:52:36;25.00;99.90
19342;DHT22;9807;48.258;12.690;2022-08-05T01:55:05;25.00;99.90
19342;DHT22;9807;48.258;12.690;2022-08-05T01:57:36;25.00;99.90
19342;DHT22;9807;48.258;12.690;2022-08-05T02:00:05;25.00;99.90
19342;DHT22;9807;48.258;12.690;2022-08-05T02:02:32;25.00;99.90
19342;DHT22;9807;48.258;12.690;2022-08-05T02:05:06;24.90;99.90
19342;DHT22;9807;48.258;12.690;2022-08-05T02:07:32;24.90;99.90
19342;DHT22;9807;48.258;12.690;2022-08-05T02:09:59;24.80;99.90
19342;DHT22;9807;48.258;12.690;2022-08-05T02:17:36;24.80;99.90
19342;DHT22;9807;48.258;12.690;2022-08-05T02:20:06;24.80;99.90
19342;DHT22;9807;48.258;12.690;2022-08-05T02:22:41;24.80;99.90
19342;DHT22;9807;48.258;12.690;2022-08-05T02:25:18;24.80;99.90
19342;DHT22;9807;48.258;12.690;2022-08-05T02:27:48;24.70;99.90
19342;DHT22;9807;48.258;12.690;2022-08-05T02:30:18;24.70;99.90
19342;DHT22;9807;48.258;12.690;2022-08-05T02:32:46;24.70;99.90
19342;DHT22;9807;48.258;12.690;2022-08-05T02:35:17;24.60;99.90
19342;DHT22;9807;48.258;12.690;2022-08-05T02:37:44;24.70;99.90
19342;DHT22;9807;48.258;12.690;2022-08-05T02:40:15;24.60;99.90
19342;DHT22;9807;48.258;12.690;2022-08-05T02:42:41;24.60;99.90
19342;DHT22;9807;48.258;12.690;2022-08-05T02:45:08;24.60;99.90
19342;DHT22;9807;48.258;12.690;2022-08-05T02:47:35;24.60;99.90
19342;DHT22;9807;48.258;12.690;2022-08-05T02:50:03;24.60;99.90
19342;DHT22;9807;48.258;12.690;2022-08-05T02:52:30;24.60;99.90
19342;DHT22;9807;48.258;12.690;2022-08-05T02:54:59;24.50;99.90
19342;DHT22;9807;48.258;12.690;2022-08-05T02:57:25;24.50;99.90
19342;DHT22;9807;48.258;12.690;2022-08-05T02:59:51;24.50;99.90
19342;DHT22;9807;48.258;12.690;2022-08-05T03:02:20;24.50;99.90
19342;DHT22;9807;48.258;12.690;2022-08-05T03:04:48;24.50;99.90
19342;DHT22;9807;48.258;12.690;2022-08-05T03:07:15;24.40;99.90
19342;DHT22;9807;48.258;12.690;2022-08-05T03:09:42;24.40;99.90
19342;DHT22;9807;48.258;12.690;2022-08-05T03:12:28;24.40;99.90
19342;DHT22;9807;48.258;12.690;2022-08-05T03:14:54;24.40;99.90
19342;DHT22;9807;48.258;12.690;2022-08-05T03:17:19;24.40;99.90
19342;DHT22;9807;48.258;12.690;2022-08-05T03:19:46;24.40;99.90
19342;DHT22;9807;48.258;12.690;2022-08-05T03:22:12;24.30;99.90
19342;DHT22;9807;48.258;12.690;2022-08-05T03:24:40;24.30;99.90
19342;DHT22;9807;48.258;12.690;2022-08-05T03:27:06;24.40;99.90
19342;DHT22;9807;48.258;12.690;2022-08-05T03:29:32;24.30;99.90
19342;DHT22;9807;48.258;12.690;2022-08-05T03:31:57;24.20;99.90
19342;DHT22;9807;48.258;12.690;2022-08-05T03:34:24;24.10;99.90
19342;DHT22;9807;48.258;12.690;2022-08-05T03:36:51;23.90;99.90
19342;DHT22;9807;48.258;12.690;2022-08-05T03:39:16;23.80;99.90
19342;DHT22;9807;48.258;12.690;2022-08-05T03:41:42;23.70;99.90
19342;DHT22;9807;48.258;12.690;2022-08-05T03:44:08;23.70;99.90
19342;DHT22;9807;48.258;12.690;2022-08-05T03:46:34;23.70;99.90
19342;DHT22;9807;48.258;12.690;2022-08-05T03:49:00;23.80;99.90
19342;DHT22;9807;48.258;12.690;2022-08-05T03:51:31;23.70;99.90
19342;DHT22;9807;48.258;12.690;2022-08-05T03:54:08;23.60;99.90
19342;DHT22;9807;48.258;12.690;2022-08-05T03:56:43;23.60;99.90
19342;DHT22;9807;48.258;12.690;2022-08-05T03:59:15;23.70;99.90
19342;DHT22;9807;48.258;12.690;2022-08-05T04:01:45;23.80;99.90
19342;DHT22;9807;48.258;12.690;2022-08-05T04:04:14;23.80;99.90
19342;DHT22;9807;48.258;12.690;2022-08-05T04:06:41;23.80;99.90
19342;DHT22;9807;48.258;12.690;2022-08-05T04:09:07;23.60;99.90
19342;DHT22;9807;48.258;12.690;2022-08-05T04:11:34;23.40;99.90
19342;DHT22;9807;48.258;12.690;2022-08-05T04:14:01;23.40;99.90
19342;DHT22;9807;48.258;12.690;2022-08-05T04:16:27;23.40;99.90
19342;DHT22;9807;48.258;12.690;2022-08-05T04:18:53;23.40;99.90
19342;DHT22;9807;48.258;12.690;2022-08-05T04:21:19;23.50;99.90
19342;DHT22;9807;48.258;12.690;2022-08-05T04:23:45;23.60;99.90
19342;DHT22;9807;48.258;12.690;2022-08-05T04:26:14;23.60;99.90
19342;DHT22;9807;48.258;12.690;2022-08-05T04:28:40;23.70;99.90
19342;DHT22;9807;48.258;12.690;2022-08-05T04:31:12;23.80;99.90
19342;DHT22;9807;48.258;12.690;2022-08-05T04:33:37;23.80;99.90
19342;DHT22;9807;48.258;12.690;2022-08-05T04:36:03;23.80;99.90
19342;DHT22;9807;48.258;12.690;2022-08-05T04:38:29;23.70;99.90
19342;DHT22;9807;48.258;12.690;2022-08-05T04:40:54;23.70;99.90
19342;DHT22;9807;48.258;12.690;2022-08-05T04:43:20;23.80;99.90
19342;DHT22;9807;48.258;12.690;2022-08-05T04:45:46;23.80;99.90
19342;DHT22;9807;48.258;12.690;2022-08-05T04:48:13;23.70;99.90
19342;DHT22;9807;48.258;12.690;2022-08-05T04:50:48;23.50;99.90
19342;DHT22;9807;48.258;12.690;2022-08-05T04:53:16;23.20;99.90
19342;DHT22;9807;48.258;12.690;2022-08-05T04:55:42;23.10;99.90
19342;DHT22;9807;48.258;12.690;2022-08-05T04:58:11;23.10;99.90
19342;DHT22;9807;48.258;12.690;2022-08-05T05:00:38;23.30;99.90
19342;DHT22;9807;48.258;12.690;2022-08-05T05:03:05;23.20;99.90
19342;DHT22;9807;48.258;12.690;2022-08-05T05:05:31;23.20;99.90
19342;DHT22;9807;48.258;12.690;2022-08-05T05:08:08;23.20;99.90
19342;DHT22;9807;48.258;12.690;2022-08-05T05:10:42;23.20;99.90
19342;DHT22;9807;48.258;12.690;2022-08-05T05:13:09;23.20;99.90
19342;DHT22;9807;48.258;12.690;2022-08-05T05:15:35;23.20;99.90
19342;DHT22;9807;48.258;12.690;2022-08-05T05:18:01;23.50;99.90
19342;DHT22;9807;48.258;12.690;2022-08-05T05:20:27;23.70;99.90
19342;DHT22;9807;48.258;12.690;2022-08-05T05:22:53;23.90;99.90
19342;DHT22;9807;48.258;12.690;2022-08-05T05:25:18;24.10;99.90
19342;DHT22;9807;48.258;12.690;2022-08-05T05:27:44;24.10;99.90
19342;DHT22;9807;48.258;12.690;2022-08-05T05:30:11;24.00;99.90
19342;DHT22;9807;48.258;12.690;2022-08-05T05:32:37;23.90;99.90
19342;DHT22;9807;48.258;12.690;2022-08-05T05:35:02;23.70;99.90
19342;DHT22;9807;48.258;12.690;2022-08-05T05:37:28;23.50;99.90
19342;DHT22;9807;48.258;12.690;2022-08-05T05:39:54;23.30;99.90
19342;DHT22;9807;48.258;12.690;2022-08-05T05:42:20;23.30;99.90
19342;DHT22;9807;48.258;12.690;2022-08-05T05:44:46;23.30;99.90
19342;DHT22;9807;48.258;12.690;2022-08-05T05:47:12;23.40;99.90
19342;DHT22;9807;48.258;12.690;2022-08-05T05:49:38;23.60;99.90
19342;DHT22;9807;48.258;12.690;2022-08-05T05:52:03;23.70;99.90
19342;DHT22;9807;48.258;12.690;2022-08-05T05:54:29;23.70;99.90
19342;DHT22;9807;48.258;12.690;2022-08-05T05:56:55;23.80;99.90
19342;DHT22;9807;48.258;12.690;2022-08-05T05:59:20;24.10;99.90
19342;DHT22;9807;48.258;12.690;2022-08-05T06:01:46;24.40;99.90
19342;DHT22;9807;48.258;12.690;2022-08-05T06:04:12;24.60;99.90
19342;DHT22;9807;48.258;12.690;2022-08-05T06:06:43;24.60;99.90
19342;DHT22;9807;48.258;12.690;2022-08-05T06:09:09;24.50;99.90
19342;DHT22;9807;48.258;12.690;2022-08-05T06:11:34;24.50;99.90
19342;DHT22;9807;48.258;12.690;2022-08-05T06:14:00;24.20;99.90
19342;DHT22;9807;48.258;12.690;2022-08-05T06:16:27;23.90;99.90
19342;DHT22;9807;48.258;12.690;2022-08-05T06:18:53;23.70;99.90
19342;DHT22;9807;48.258;12.690;2022-08-05T06:21:19;23.80;99.90
19342;DHT22;9807;48.258;12.690;2022-08-05T06:23:45;24.00;99.90
19342;DHT22;9807;48.258;12.690;2022-08-05T06:26:11;24.10;99.90
19342;DHT22;9807;48.258;12.690;2022-08-05T06:28:37;24.20;99.90
19342;DHT22;9807;48.258;12.690;2022-08-05T06:31:12;24.40;99.90
19342;DHT22;9807;48.258;12.690;2022-08-05T06:33:37;24.60;99.90
19342;DHT22;9807;48.258;12.690;2022-08-05T06:36:09;25.20;99.90
19342;DHT22;9807;48.258;12.690;2022-08-05T06:38:36;25.80;99.90
19342;DHT22;9807;48.258;12.690;2022-08-05T06:41:03;26.40;99.90
19342;DHT22;9807;48.258;12.690;2022-08-05T06:43:33;26.80;99.90
19342;DHT22;9807;48.258;12.690;2022-08-05T06:45:59;26.70;99.90
19342;DHT22;9807;48.258;12.690;2022-08-05T06:48:24;26.40;99.90
19342;DHT22;9807;48.258;12.690;2022-08-05T06:50:50;26.30;99.90
19342;DHT22;9807;48.258;12.690;2022-08-05T06:53:16;26.10;99.90
19342;DHT22;9807;48.258;12.690;2022-08-05T06:55:42;26.00;99.90
19342;DHT22;9807;48.258;12.690;2022-08-05T06:58:08;26.10;99.90
19342;DHT22;9807;48.258;12.690;2022-08-05T07:00:34;26.30;99.90
19342;DHT22;9807;48.258;12.690;2022-08-05T07:03:00;26.70;99.90
19342;DHT22;9807;48.258;12.690;2022-08-05T07:05:25;26.90;99.90
19342;DHT22;9807;48.258;12.690;2022-08-05T07:07:51;27.20;99.90
19342;DHT22;9807;48.258;12.690;2022-08-05T07:10:18;27.40;99.90
19342;DHT22;9807;48.258;12.690;2022-08-05T07:12:44;27.50;99.90
19342;DHT22;9807;48.258;12.690;2022-08-05T07:15:28;27.60;99.90
19342;DHT22;9807;48.258;12.690;2022-08-05T07:18:12;28.00;99.90
19342;DHT22;9807;48.258;12.690;2022-08-05T07:20:41;28.60;99.90
19342;DHT22;9807;48.258;12.690;2022-08-05T07:23:07;29.10;99.90
19342;DHT22;9807;48.258;12.690;2022-08-05T07:25:32;29.60;99.90
19342;DHT22;9807;48.258;12.690;2022-08-05T07:27:58;29.80;99.90
19342;DHT22;9807;48.258;12.690;2022-08-05T07:30:27;29.50;99.90
19342;DHT22;9807;48.258;12.690;2022-08-05T07:32:55;29.50;99.90
19342;DHT22;9807;48.258;12.690;2022-08-05T07:35:20;29.70;99.90
19342;DHT22;9807;48.258;12.690;2022-08-05T07:37:46;29.90;99.90
19342;DHT22;9807;48.258;12.690;2022-08-05T07:40:12;29.80;99.90
19342;DHT22;9807;48.258;12.690;2022-08-05T07:42:37;29.90;99.90
19342;DHT22;9807;48.258;12.690;2022-08-05T07:45:04;29.80;99.90
19342;DHT22;9807;48.258;12.690;2022-08-05T07:47:30;29.70;99.90
19342;DHT22;9807;48.258;12.690;2022-08-05T07:49:55;29.70;99.90
19342;DHT22;9807;48.258;12.690;2022-08-05T07:52:21;29.80;99.90
19342;DHT22;9807;48.258;12.690;2022-08-05T07:54:47;30.00;99.90
19342;DHT22;9807;48.258;12.690;2022-08-05T07:57:13;30.40;99.90
19342;DHT22;9807;48.258;12.690;2022-08-05T07:59:38;30.10;99.90
19342;DHT22;9807;48.258;12.690;2022-08-05T08:02:04;29.80;99.90
19342;DHT22;9807;48.258;12.690;2022-08-05T08:04:31;29.70;99.90
19342;DHT22;9807;48.258;12.690;2022-08-05T08:06:57;29.70;99.90
19342;DHT22;9807;48.258;12.690;2022-08-05T08:09:25;29.80;99.90
19342;DHT22;9807;48.258;12.690;2022-08-05T08:11:51;29.70;99.90
19342;DHT22;9807;48.258;12.690;2022-08-05T08:14:17;29.80;99.90
19342;DHT22;9807;48.258;12.690;2022-08-05T08:16:42;29.70;99.90
19342;DHT22;9807;48.258;12.690;2022-08-05T08:19:08;29.80;99.90
19342;DHT22;9807;48.258;12.690;2022-08-05T08:21:34;29.80;99.90
19342;DHT22;9807;48.258;12.690;2022-08-05T08:24:00;30.20;99.90
19342;DHT22;9807;48.258;12.690;2022-08-05T08:26:25;30.70;99.90
19342;DHT22;9807;48.258;12.690;2022-08-05T08:28:51;31.20;99.90
19342;DHT22;9807;48.258;12.690;2022-08-05T08:31:20;31.30;99.90
19342;DHT22;9807;48.258;12.690;2022-08-05T08:33:48;31.40;99.90
19342;DHT22;9807;48.258;12.690;2022-08-05T08:36:14;31.70;99.90
19342;DHT22;9807;48.258;12.690;2022-08-05T08:38:39;31.90;99.90
19342;DHT22;9807;48.258;12.690;2022-08-05T08:41:09;32.10;99.90
19342;DHT22;9807;48.258;12.690;2022-08-05T08:43:37;32.40;99.90
19342;DHT22;9807;48.258;12.690;2022-08-05T08:46:10;32.50;99.90
19342;DHT22;9807;48.258;12.690;2022-08-05T08:48:41;32.70;99.90
19342;DHT22;9807;48.258;12.690;2022-08-05T08:51:10;32.90;99.90
19342;DHT22;9807;48.258;12.690;2022-08-05T08:53:37;33.00;99.90
19342;DHT22;9807;48.258;12.690;2022-08-05T08:56:07;33.20;99.90
19342;DHT22;9807;48.258;12.690;2022-08-05T08:58:33;33.10;99.90
19342;DHT22;9807;48.258;12.690;2022-08-05T09:00:59;32.70;99.90
19342;DHT22;9807;48.258;12.690;2022-08-05T09:03:26;32.70;99.90
19342;DHT22;9807;48.258;12.690;2022-08-05T09:05:52;32.70;99.90
19342;DHT22;9807;48.258;12.690;2022-08-05T09:08:18;32.30;99.90
19342;DHT22;9807;48.258;12.690;2022-08-05T09:10:44;32.20;99.90
19342;DHT22;9807;48.258;12.690;2022-08-05T09:13:14;32.00;99.90
19342;DHT22;9807;48.258;12.690;2022-08-05T09:15:40;31.60;99.90
19342;DHT22;9807;48.258;12.690;2022-08-05T09:18:07;31.30;99.90
19342;DHT22;9807;48.258;12.690;2022-08-05T09:20:33;30.90;99.90
19342;DHT22;9807;48.258;12.690;2022-08-05T09:23:14;30.70;99.90
19342;DHT22;9807;48.258;12.690;2022-08-05T09:25:43;30.70;99.90
19342;DHT22;9807;48.258;12.690;2022-08-05T09:28:17;30.60;99.90
19342;DHT22;9807;48.258;12.690;2022-08-05T09:30:55;30.60;99.90
19342;DHT22;9807;48.258;12.690;2022-08-05T09:33:21;30.80;99.90
19342;DHT22;9807;48.258;12.690;2022-08-05T09:36:02;30.70;99.90
19342;DHT22;9807;48.258;12.690;2022-08-05T09:38:29;30.50;99.90
19342;DHT22;9807;48.258;12.690;2022-08-05T09:41:07;30.50;99.90
19342;DHT22;9807;48.258;12.690;2022-08-05T09:43:38;30.50;99.90
19342;DHT22;9807;48.258;12.690;2022-08-05T09:46:32;30.50;99.90
19342;DHT22;9807;48.258;12.690;2022-08-05T09:49:00;30.60;99.90
19342;DHT22;9807;48.258;12.690;2022-08-05T09:51:38;30.60;99.90
19342;DHT22;9807;48.258;12.690;2022-08-05T09:54:06;30.50;99.90
19342;DHT22;9807;48.258;12.690;2022-08-05T09:56:37;30.50;99.90
19342;DHT22;9807;48.258;12.690;2022-08-05T09:59:05;30.50;99.90
19342;DHT22;9807;48.258;12.690;2022-08-05T10:01:32;30.50;99.90
19342;DHT22;9807;48.258;12.690;2022-08-05T10:04:02;30.60;99.90
19342;DHT22;9807;48.258;12.690;2022-08-05T10:06:29;30.80;99.90
19342;DHT22;9807;48.258;12.690;2022-08-05T10:09:14;30.80;99.90
19342;DHT22;9807;48.258;12.690;2022-08-05T10:11:41;30.90;99.90
19342;DHT22;9807;48.258;12.690;2022-08-05T10:14:27;30.80;99.90
19342;DHT22;9807;48.258;12.690;2022-08-05T10:16:54;30.70;99.90
19342;DHT22;9807;48.258;12.690;2022-08-05T10:19:24;30.70;99.90
19342;DHT22;9807;48.258;12.690;2022-08-05T10:21:51;30.70;99.90
19342;DHT22;9807;48.258;12.690;2022-08-05T10:24:18;30.70;99.90
19342;DHT22;9807;48.258;12.690;2022-08-05T10:26:46;30.60;99.90
19342;DHT22;9807;48.258;12.690;2022-08-05T10:29:12;30.60;99.90
19342;DHT22;9807;48.258;12.690;2022-08-05T10:31:38;30.70;99.90
19342;DHT22;9807;48.258;12.690;2022-08-05T10:34:05;30.80;99.90
19342;DHT22;9807;48.258;12.690;2022-08-05T10:36:33;30.80;99.90
19342;DHT22;9807;48.258;12.690;2022-08-05T10:39:04;30.90;99.90
19342;DHT22;9807;48.258;12.690;2022-08-05T10:41:52;31.00;99.90
19342;DHT22;9807;48.258;12.690;2022-08-05T10:44:21;31.20;99.90
19342;DHT22;9807;48.258;12.690;2022-08-05T10:46:53;31.20;99.90
19342;DHT22;9807;48.258;12.690;2022-08-05T10:49:21;31.20;99.90
19342;DHT22;9807;48.258;12.690;2022-08-05T10:51:49;31.20;99.90
19342;DHT22;9807;48.258;12.690;2022-08-05T10:54:16;31.30;99.90
19342;DHT22;9807;48.258;12.690;2022-08-05T10:56:50;31.50;99.90
19342;DHT22;9807;48.258;12.690;2022-08-05T10:59:17;31.40;99.90
19342;DHT22;9807;48.258;12.690;2022-08-05T11:01:44;31.20;99.90
19342;DHT22;9807;48.258;12.690;2022-08-05T11:04:13;31.20;99.90
19342;DHT22;9807;48.258;12.690;2022-08-05T11:07:07;31.10;99.90
19342;DHT22;9807;48.258;12.690;2022-08-05T11:09:50;31.00;99.90
19342;DHT22;9807;48.258;12.690;2022-08-05T11:15:19;31.30;99.90
19342;DHT22;9807;48.258;12.690;2022-08-05T11:17:49;31.40;99.90
19342;DHT22;9807;48.258;12.690;2022-08-05T11:20:41;31.50;99.90
19342;DHT22;9807;48.258;12.690;2022-08-05T11:26:04;31.40;99.90
19342;DHT22;9807;48.258;12.690;2022-08-05T11:33:53;31.50;99.90
19342;DHT22;9807;48.258;12.690;2022-08-05T11:39:06;31.50;99.90
19342;DHT22;9807;48.258;12.690;2022-08-05T11:41:33;31.60;99.90
19342;DHT22;9807;48.258;12.690;2022-08-05T11:44:09;31.70;99.90
19342;DHT22;9807;48.258;12.690;2022-08-05T11:46:51;31.90;99.90
19342;DHT22;9807;48.258;12.690;2022-08-05T11:49:21;31.80;99.90
19342;DHT22;9807;48.258;12.690;2022-08-05T11:51:49;31.90;99.90
19342;DHT22;9807;48.258;12.690;2022-08-05T11:54:24;31.80;99.90
19342;DHT22;9807;48.258;12.690;2022-08-05T11:56:52;31.90;99.90
19342;DHT22;9807;48.258;12.690;2022-08-05T11:59:20;32.00;99.90
19342;DHT22;9807;48.258;12.690;2022-08-05T12:02:00;32.10;99.90
19342;DHT22;9807;48.258;12.690;2022-08-05T12:04:37;32.20;99.90
19342;DHT22;9807;48.258;12.690;2022-08-05T12:07:05;31.90;99.90
19342;DHT22;9807;48.258;12.690;2022-08-05T12:09:40;32.00;99.90
19342;DHT22;9807;48.258;12.690;2022-08-05T12:14:47;32.20;99.90
19342;DHT22;9807;48.258;12.690;2022-08-05T12:17:14;32.40;99.90
19342;DHT22;9807;48.258;12.690;2022-08-05T12:19:50;32.40;99.90
19342;DHT22;9807;48.258;12.690;2022-08-05T12:22:17;32.50;99.90
19342;DHT22;9807;48.258;12.690;2022-08-05T12:24:46;32.40;99.90
19342;DHT22;9807;48.258;12.690;2022-08-05T12:27:26;32.40;99.90
19342;DHT22;9807;48.258;12.690;2022-08-05T12:30:13;32.40;99.90
19342;DHT22;9807;48.258;12.690;2022-08-05T12:32:46;32.50;99.90
19342;DHT22;9807;48.258;12.690;2022-08-05T12:35:15;32.60;99.90
19342;DHT22;9807;48.258;12.690;2022-08-05T12:37:42;32.60;99.90
19342;DHT22;9807;48.258;12.690;2022-08-05T12:40:15;32.80;99.90
19342;DHT22;9807;48.258;12.690;2022-08-05T12:42:41;32.90;99.90
19342;DHT22;9807;48.258;12.690;2022-08-05T12:45:08;33.10;99.90
19342;DHT22;9807;48.258;12.690;2022-08-05T12:47:34;33.20;99.90
19342;DHT22;9807;48.258;12.690;2022-08-05T12:50:12;33.20;99.90
19342;DHT22;9807;48.258;12.690;2022-08-05T12:52:37;33.30;99.90
19342;DHT22;9807;48.258;12.690;2022-08-05T12:55:16;33.30;99.90
19342;DHT22;9807;48.258;12.690;2022-08-05T12:57:42;33.40;99.90
19342;DHT22;9807;48.258;12.690;2022-08-05T13:00:22;33.50;99.90
19342;DHT22;9807;48.258;12.690;2022-08-05T13:02:48;33.50;99.90
19342;DHT22;9807;48.258;12.690;2022-08-05T13:05:14;33.50;99.90
19342;DHT22;9807;48.258;12.690;2022-08-05T13:07:42;33.60;99.90
19342;DHT22;9807;48.258;12.690;2022-08-05T13:10:12;33.70;99.90
19342;DHT22;9807;48.258;12.690;2022-08-05T13:12:43;33.80;99.90
19342;DHT22;9807;48.258;12.690;2022-08-05T13:15:10;33.70;99.90
19342;DHT22;9807;48.258;12.690;2022-08-05T13:17:36;33.80;99.90
19342;DHT22;9807;48.258;12.690;2022-08-05T13:20:06;33.90;99.90
19342;DHT22;9807;48.258;12.690;2022-08-05T13:22:47;34.20;99.90
19342;DHT22;9807;48.258;12.690;2022-08-05T13:25:15;34.30;99.90
19342;DHT22;9807;48.258;12.690;2022-08-05T13:27:49;34.20;99.90
19342;DHT22;9807;48.258;12.690;2022-08-05T13:30:17;34.10;99.90
19342;DHT22;9807;48.258;12.690;2022-08-05T13:32:44;33.90;99.90
19342;DHT22;9807;48.258;12.690;2022-08-05T13:35:15;34.10;99.90
19342;DHT22;9807;48.258;12.690;2022-08-05T13:37:41;34.20;99.90
19342;DHT22;9807;48.258;12.690;2022-08-05T13:40:08;34.00;99.90
19342;DHT22;9807;48.258;12.690;2022-08-05T13:42:34;33.70;99.90
19342;DHT22;9807;48.258;12.690;2022-08-05T13:45:00;33.80;99.90
19342;DHT22;9807;48.258;12.690;2022-08-05T13:47:26;33.80;99.90
19342;DHT22;9807;48.258;12.690;2022-08-05T13:49:52;33.90;99.90
19342;DHT22;9807;48.258;12.690;2022-08-05T13:52:23;34.00;99.90
19342;DHT22;9807;48.258;12.690;2022-08-05T13:54:54;34.20;99.90
19342;DHT22;9807;48.258;12.690;2022-08-05T13:57:20;34.20;99.90
19342;DHT22;9807;48.258;12.690;2022-08-05T13:59:46;34.20;99.90
19342;DHT22;9807;48.258;12.690;2022-08-05T14:02:13;34.20;99.90
19342;DHT22;9807;48.258;12.690;2022-08-05T14:04:48;34.20;99.90
19342;DHT22;9807;48.258;12.690;2022-08-05T14:07:34;34.30;99.90
19342;DHT22;9807;48.258;12.690;2022-08-05T14:10:34;34.10;99.90
19342;DHT22;9807;48.258;12.690;2022-08-05T14:12:53;34.00;99.90
19342;DHT22;9807;48.258;12.690;2022-08-05T14:15:21;33.90;99.90
19342;DHT22;9807;48.258;12.690;2022-08-05T14:17:47;33.90;99.90
19342;DHT22;9807;48.258;12.690;2022-08-05T14:20:15;33.80;99.90
19342;DHT22;9807;48.258;12.690;2022-08-05T14:22:41;33.90;99.90
19342;DHT22;9807;48.258;12.690;2022-08-05T14:25:08;33.90;99.90
19342;DHT22;9807;48.258;12.690;2022-08-05T14:27:34;33.80;99.90
19342;DHT22;9807;48.258;12.690;2022-08-05T14:30:00;33.70;99.90
19342;DHT22;9807;48.258;12.690;2022-08-05T14:32:26;33.50;99.90
19342;DHT22;9807;48.258;12.690;2022-08-05T14:34:53;33.30;99.90
19342;DHT22;9807;48.258;12.690;2022-08-05T14:37:19;33.30;99.90
19342;DHT22;9807;48.258;12.690;2022-08-05T14:39:44;33.20;99.90
19342;DHT22;9807;48.258;12.690;2022-08-05T14:42:11;33.10;99.90
19342;DHT22;9807;48.258;12.690;2022-08-05T14:44:37;33.00;99.90
19342;DHT22;9807;48.258;12.690;2022-08-05T14:47:03;33.00;99.90
19342;DHT22;9807;48.258;12.690;2022-08-05T14:49:29;33.00;99.90
19342;DHT22;9807;48.258;12.690;2022-08-05T14:51:54;32.80;99.90
19342;DHT22;9807;48.258;12.690;2022-08-05T14:54:20;32.80;99.90
19342;DHT22;9807;48.258;12.690;2022-08-05T14:56:46;32.70;99.90
19342;DHT22;9807;48.258;12.690;2022-08-05T14:59:13;32.60;99.90
19342;DHT22;9807;48.258;12.690;2022-08-05T15:01:39;32.60;99.90
19342;DHT22;9807;48.258;12.690;2022-08-05T15:04:05;32.50;99.90
19342;DHT22;9807;48.258;12.690;2022-08-05T15:06:38;32.50;99.90
19342;DHT22;9807;48.258;12.690;2022-08-05T15:09:04;32.40;99.90
19342;DHT22;9807;48.258;12.690;2022-08-05T15:11:36;32.50;99.90
19342;DHT22;9807;48.258;12.690;2022-08-05T15:14:02;32.40;99.90
19342;DHT22;9807;48.258;12.690;2022-08-05T15:16:59;32.50;99.90
19342;DHT22;9807;48.258;12.690;2022-08-05T15:19:25;32.50;99.90
19342;DHT22;9807;48.258;12.690;2022-08-05T15:21:57;32.40;99.90
19342;DHT22;9807;48.258;12.690;2022-08-05T15:24:25;32.40;99.90
19342;DHT22;9807;48.258;12.690;2022-08-05T15:26:51;32.40;99.90
19342;DHT22;9807;48.258;12.690;2022-08-05T15:29:17;32.40;99.90
19342;DHT22;9807;48.258;12.690;2022-08-05T15:32:10;32.50;99.90
19342;DHT22;9807;48.258;12.690;2022-08-05T15:34:37;32.50;99.90
19342;DHT22;9807;48.258;12.690;2022-08-05T15:37:02;32.40;99.90
19342;DHT22;9807;48.258;12.690;2022-08-05T15:39:28;32.40;99.90
19342;DHT22;9807;48.258;12.690;2022-08-05T15:41:54;32.30;99.90
19342;DHT22;9807;48.258;12.690;2022-08-05T15:44:23;32.40;99.90
19342;DHT22;9807;48.258;12.690;2022-08-05T15:46:53;32.60;99.90
19342;DHT22;9807;48.258;12.690;2022-08-05T15:49:19;32.60;99.90
19342;DHT22;9807;48.258;12.690;2022-08-05T15:51:50;32.70;99.90
19342;DHT22;9807;48.258;12.690;2022-08-05T15:54:16;32.70;99.90
19342;DHT22;9807;48.258;12.690;2022-08-05T15:56:42;32.70;99.90
19342;DHT22;9807;48.258;12.690;2022-08-05T15:59:08;32.50;99.90
19342;DHT22;9807;48.258;12.690;2022-08-05T16:01:52;32.40;99.90
19342;DHT22;9807;48.258;12.690;2022-08-05T16:04:18;32.40;99.90
19342;DHT22;9807;48.258;12.690;2022-08-05T16:06:50;32.30;99.90
19342;DHT22;9807;48.258;12.690;2022-08-05T16:09:15;32.20;99.90
19342;DHT22;9807;48.258;12.690;2022-08-05T16:12:06;31.80;99.90